Columbus, Ohio
Current Conditions -  °F | °C
As of 12:51 AM on Saturday 20 Dec 2014 (Local Time) from KCMH Reporting Station
Overcast Overcast  
Wind Chill: 22°   Ceiling: 1700
Heat Index: 28°   Visibility: 9mi
Dew Point: 22°   Wind: 6mph
Humidity: 78%   Direction: 120°ESE
Pressure: 30.26"   Gusts: NA
Location:  39.96°N, 83°W
Report Text: KCMH 200551Z 12005KT 9SM OVC017 M02/M06 A3026 RMK AO2 SLP254 T10221056 11011 21022 56010
Loading
Personal Weather Stations






























Interactive Weather Map New forecast layout! Learn more

10-Day Weather Forecast

Advertisements
Track Severe Weather on mobile